Mckinley Sea — WDE5024 — position and weather

sailwx.info

Track history (hours):
 
Tides and Currents Weather Stations Pressure Air Temp Water Temp Dewpoint Dewpoint Depression Visibility Wind Speed Wind Dir Waves Ship Positions

Mckinley Sea

Owner: Kirby Offshore Marine, LLC, Staten Island, NY. More information available from US FCC via Universal Licensing System and Coast Guard Vessel Documentation Center.

Last reported at 2014-Oct-24 05:22 UTC. Time now 2014-Oct-24 08:41 UTC.
Position N 40°33' W 074°14'.

Length 46 m; draft 7 m.

Type: Towing. MMSI: 367360980.

Date/timePositionNaut miles runAvg speedWind from/ knotsBaromVisibWave heightAir tempDewpointWater temp
2014-Oct-24 05:22N 40°33' W 074°14'0 0.0
2014-Oct-24 03:04N 40°33' W 074°14'0 0.0
2014-Oct-23 23:07N 40°33' W 074°14'0 0.0
2014-Oct-23 22:16N 40°33' W 074°14'5 4.6
2014-Oct-23 21:09N 40°38' W 074°12'2 0.5
2014-Oct-23 18:09N 40°38' W 074°10'0 0.0
2014-Oct-23 17:14N 40°38' W 074°10'2 0.1
2014-Oct-23 06:17N 40°38' W 074°12'6 8.0
2014-Oct-23 05:33N 40°39' W 074°04'32 9.4
2014-Oct-23 02:07N 40°58' W 073°30'6 9.9
2014-Oct-23 01:33N 41°01' W 073°23'2110.0
2014-Oct-22 23:26N 41°10' W 072°58'8 7.7
2014-Oct-22 22:24N 41°17' W 072°55'0 0.1
2014-Oct-22 14:33N 41°17' W 072°55'4 4.3
2014-Oct-22 13:33N 41°13' W 072°56'0 0.1
2014-Oct-22 12:33N 41°13' W 072°56'0 0.0
2014-Oct-22 11:33N 41°13' W 072°56'0 0.0
2014-Oct-22 10:33N 41°13' W 072°56'0 0.1
2014-Oct-22 09:32N 41°13' W 072°56'0 0.1
2014-Oct-22 08:33N 41°13' W 072°56'0 0.0
2014-Oct-22 07:33N 41°13' W 072°56'0 0.0
2014-Oct-22 06:33N 41°13' W 072°56'3 3.5
2014-Oct-22 05:33N 41°12' W 072°51'8 8.3
2014-Oct-22 04:33N 41°11' W 072°40'8 8.2
2014-Oct-22 03:33N 41°10' W 072°29'9 8.9
2014-Oct-22 02:33N 41°12' W 072°18'1010.1
2014-Oct-22 01:33N 41°14' W 072°05'1010.3
2014-Oct-22 00:33N 41°16' W 071°51'10 9.8
2014-Oct-21 23:33N 41°17' W 071°38'9 8.7
2014-Oct-21 22:33N 41°20' W 071°27'9 8.6
2014-Oct-21 21:33N 41°28' W 071°22'8 8.0
2014-Oct-21 20:33N 41°35' W 071°18'8 7.6
2014-Oct-21 19:33N 41°43' W 071°20'6 1.0
2014-Oct-21 13:32N 41°48' W 071°24'0 0.0
2014-Oct-21 12:33N 41°48' W 071°24'2 1.6
2014-Oct-21 11:33N 41°47' W 071°22'0 0.0
2014-Oct-21 10:33N 41°47' W 071°22'0 0.0
2014-Oct-21 09:33N 41°47' W 071°22'0 0.0
2014-Oct-21 08:33N 41°47' W 071°22'0 0.0
2014-Oct-21 07:33N 41°47' W 071°22'0 0.0
2014-Oct-21 06:33N 41°47' W 071°22'0 0.0
2014-Oct-21 05:33N 41°47' W 071°22'0 0.0
2014-Oct-21 04:33N 41°47' W 071°22'0 0.0
2014-Oct-21 03:33N 41°47' W 071°22'0 0.0
2014-Oct-21 02:33N 41°47' W 071°22'0 0.0
2014-Oct-21 01:33N 41°47' W 071°22'0 0.0
2014-Oct-21 00:33N 41°47' W 071°22'0 0.0
2014-Oct-20 23:33N 41°47' W 071°22'0 0.0
2014-Oct-20 22:32N 41°47' W 071°22'0 0.0
2014-Oct-20 21:31N 41°47' W 071°22'0 0.0
2014-Oct-20 20:33N 41°47' W 071°22'0 0.0
2014-Oct-20 19:29N 41°47' W 071°22'0 0.0
2014-Oct-20 18:33N 41°47' W 071°22'0 0.0
2014-Oct-20 17:33N 41°47' W 071°22'0 0.0
2014-Oct-20 16:33N 41°47' W 071°22'0 0.0
2014-Oct-20 15:33N 41°47' W 071°22'0 0.0
2014-Oct-20 14:31N 41°47' W 071°22'1 1.1
2014-Oct-20 13:33N 41°46' W 071°23'5 4.7
2014-Oct-20 12:33N 41°42' W 071°19'4 4.2
2014-Oct-20 11:33N 41°38' W 071°18'5 5.3
2014-Oct-20 10:33N 41°33' W 071°20'7 7.3
2014-Oct-20 09:33N 41°26' W 071°23'8 8.0
2014-Oct-20 08:33N 41°19' W 071°28'7 7.4
2014-Oct-20 07:33N 41°17' W 071°37'8 8.1
2014-Oct-20 06:33N 41°16' W 071°48'9 9.0
2014-Oct-20 05:33N 41°14' W 071°60'10 9.7
2014-Oct-20 04:33N 41°13' W 072°13'10 9.9
2014-Oct-20 03:33N 41°09' W 072°25'9 8.9
2014-Oct-20 02:33N 41°07' W 072°36'8 8.2
2014-Oct-20 01:33N 41°05' W 072°47'23 7.5
2014-Oct-19 22:30N 41°01' W 073°17'7 7.4
2014-Oct-19 21:33N 40°60' W 073°26'24 7.5
2014-Oct-19 18:21N 40°48' W 073°53'5 6.3
2014-Oct-19 17:33N 40°45' W 073°58'6 5.8
2014-Oct-19 16:33N 40°40' W 074°03'6 6.1
2014-Oct-19 15:33N 40°39' W 074°10'3 2.6
2014-Oct-19 14:17N 40°36' W 074°12'3 4.6
2014-Oct-19 13:33N 40°39' W 074°10'0 0.2
2014-Oct-19 12:33N 40°39' W 074°10'0 0.0
2014-Oct-19 11:33N 40°39' W 074°10'0 0.0
2014-Oct-19 10:33N 40°39' W 074°10'3 0.9
2014-Oct-19 07:09N 40°36' W 074°12'3 1.1
2014-Oct-19 04:25N 40°34' W 074°14'0 0.0
2014-Oct-19 03:13N 40°34' W 074°14'0 0.0
2014-Oct-19 02:31N 40°34' W 074°14'0 0.0
2014-Oct-19 01:33N 40°34' W 074°14'3 0.1
2014-Oct-17 23:31N 40°31' W 074°15'5 5.1
2014-Oct-17 22:32N 40°30' W 074°09'0 0.0
2014-Oct-17 21:31N 40°30' W 074°09'0 0.0
2014-Oct-17 15:25N 40°30' W 074°09'0 0.0
2014-Oct-17 14:28N 40°30' W 074°09'0 0.0
2014-Oct-17 11:27N 40°30' W 074°09'0 0.0
2014-Oct-17 09:23N 40°30' W 074°09'0 0.0
2014-Oct-17 02:31N 40°30' W 074°09'0 0.0
2014-Oct-17 00:33N 40°30' W 074°09'0 0.0
2014-Oct-16 23:13N 40°30' W 074°09'4 5.3
2014-Oct-16 22:32N 40°29' W 074°04'8 8.5
2014-Oct-16 21:33N 40°37' W 074°03'8 8.0
2014-Oct-16 20:33N 40°44' W 073°58'7 6.1
2014-Oct-16 19:30N 40°48' W 073°51'6 6.7
2014-Oct-16 18:33N 40°52' W 073°45'9 8.6
2014-Oct-16 17:33N 40°56' W 073°35'10 9.5
2014-Oct-16 16:33N 41°01' W 073°24'10 9.5
2014-Oct-16 15:33N 41°02' W 073°11'9 9.2
2014-Oct-16 14:33N 41°03' W 072°59'9 9.1
2014-Oct-16 13:33N 41°05' W 072°47'9 8.9
2014-Oct-16 12:33N 41°07' W 072°36'9 8.6
2014-Oct-16 11:34N 41°10' W 072°25'9 9.1
2014-Oct-16 10:33N 41°13' W 072°13'1010.0
2014-Oct-16 09:33N 41°14' W 072°00'1010.4
2014-Oct-16 08:33N 41°16' W 071°47'1010.1
2014-Oct-16 07:33N 41°18' W 071°33'8 8.1
2014-Oct-16 06:33N 41°23' W 071°25'9 8.7
2014-Oct-16 05:33N 41°31' W 071°21'8 7.9
2014-Oct-16 04:33N 41°39' W 071°19'7 7.3
2014-Oct-16 03:33N 41°46' W 071°23'1 1.2
2014-Oct-16 02:33N 41°47' W 071°22'0 0.0
2014-Oct-16 01:33N 41°47' W 071°22'0 0.0
2014-Oct-16 00:33N 41°47' W 071°22'0 0.0
2014-Oct-15 23:33N 41°47' W 071°22'0 0.0
2014-Oct-15 22:33N 41°47' W 071°22'0 0.0
2014-Oct-15 21:33N 41°47' W 071°22'0 0.0
2014-Oct-15 20:33N 41°47' W 071°22'0 0.0
2014-Oct-15 19:33N 41°47' W 071°22'0 0.0
2014-Oct-15 18:33N 41°47' W 071°22'0 0.0
2014-Oct-15 17:33N 41°47' W 071°22'0 0.0
2014-Oct-15 16:33N 41°47' W 071°22'0 0.0
2014-Oct-15 15:33N 41°47' W 071°22'0 0.0
2014-Oct-15 14:33N 41°47' W 071°22'0 0.0
2014-Oct-15 13:33N 41°47' W 071°22'0 0.0
2014-Oct-15 12:33N 41°47' W 071°22'0 0.0
2014-Oct-15 11:33N 41°47' W 071°22'0 0.0
2014-Oct-15 10:33N 41°47' W 071°22'0 0.0
2014-Oct-15 09:33N 41°47' W 071°22'0 0.0
2014-Oct-15 08:33N 41°47' W 071°22'0 0.1
2014-Oct-15 07:33N 41°47' W 071°22'5 4.9
2014-Oct-15 06:33N 41°42' W 071°20'8 7.4
2014-Oct-15 05:28N 41°34' W 071°19'7 8.0
2014-Oct-15 04:33N 41°28' W 071°22'8 8.1
2014-Oct-15 03:33N 41°20' W 071°27'7 6.9
2014-Oct-15 02:33N 41°18' W 071°35'8 8.3
2014-Oct-15 01:33N 41°16' W 071°46'9 9.2
2014-Oct-15 00:33N 41°14' W 071°58'10 9.9
2014-Oct-14 23:33N 41°13' W 072°11'10 9.8
2014-Oct-14 22:33N 41°10' W 072°24'9 8.9
2014-Oct-14 21:33N 41°07' W 072°35'8 8.2
2014-Oct-14 20:33N 41°05' W 072°45'8 7.7
2014-Oct-14 19:32N 41°04' W 072°56'7 7.6
2014-Oct-14 18:33N 41°02' W 073°05'8 7.5
2014-Oct-14 17:33N 41°01' W 073°15'11 7.5
2014-Oct-14 16:07N 40°59' W 073°29'13 7.9
2014-Oct-14 14:28N 40°52' W 073°44'7 7.2
2014-Oct-14 13:32N 40°48' W 073°51'6 5.8
2014-Oct-14 12:33N 40°45' W 073°57'5 4.7
2014-Oct-14 11:32N 40°41' W 074°01'4 4.1
2014-Oct-14 10:33N 40°39' W 074°05'0 0.0
2014-Oct-14 09:33N 40°39' W 074°05'0 0.0
2014-Oct-14 08:33N 40°39' W 074°05'0 0.0
2014-Oct-14 07:31N 40°39' W 074°05'0 0.0
2014-Oct-14 06:29N 40°39' W 074°05'0 0.0
2014-Oct-14 05:25N 40°39' W 074°05'  
Track history (hours):
 
Tides and Currents Weather Stations Pressure Air Temp Water Temp Dewpoint Dewpoint Depression Visibility Wind Speed Wind Dir Waves Ship Positions

Mckinley Sea

Owner: Kirby Offshore Marine, LLC, Staten Island, NY. More information available from US FCC via Universal Licensing System and Coast Guard Vessel Documentation Center.

Last reported at 2014-Oct-24 05:22 UTC. Time now 2014-Oct-24 08:41 UTC.
Position N 40°33' W 074°14'.

Length 46 m; draft 7 m.

Type: Towing. MMSI: 367360980.

Date/timePositionNaut miles runAvg speedWind from/ knotsBaromVisibWave heightAir tempDewpointWater temp
2014-Oct-24 05:22N 40°33' W 074°14'0 0.0
2014-Oct-24 03:04N 40°33' W 074°14'0 0.0
2014-Oct-23 23:07N 40°33' W 074°14'0 0.0
2014-Oct-23 22:16N 40°33' W 074°14'5 4.6
2014-Oct-23 21:09N 40°38' W 074°12'2 0.5
2014-Oct-23 18:09N 40°38' W 074°10'0 0.0
2014-Oct-23 17:14N 40°38' W 074°10'2 0.1
2014-Oct-23 06:17N 40°38' W 074°12'6 8.0
2014-Oct-23 05:33N 40°39' W 074°04'32 9.4
2014-Oct-23 02:07N 40°58' W 073°30'6 9.9
2014-Oct-23 01:33N 41°01' W 073°23'2110.0
2014-Oct-22 23:26N 41°10' W 072°58'8 7.7
2014-Oct-22 22:24N 41°17' W 072°55'0 0.1
2014-Oct-22 14:33N 41°17' W 072°55'4 4.3
2014-Oct-22 13:33N 41°13' W 072°56'0 0.1
2014-Oct-22 12:33N 41°13' W 072°56'0 0.0
2014-Oct-22 11:33N 41°13' W 072°56'0 0.0
2014-Oct-22 10:33N 41°13' W 072°56'0 0.1
2014-Oct-22 09:32N 41°13' W 072°56'0 0.1
2014-Oct-22 08:33N 41°13' W 072°56'0 0.0
2014-Oct-22 07:33N 41°13' W 072°56'0 0.0
2014-Oct-22 06:33N 41°13' W 072°56'3 3.5
2014-Oct-22 05:33N 41°12' W 072°51'8 8.3
2014-Oct-22 04:33N 41°11' W 072°40'8 8.2
2014-Oct-22 03:33N 41°10' W 072°29'9 8.9
2014-Oct-22 02:33N 41°12' W 072°18'1010.1
2014-Oct-22 01:33N 41°14' W 072°05'1010.3
2014-Oct-22 00:33N 41°16' W 071°51'10 9.8
2014-Oct-21 23:33N 41°17' W 071°38'9 8.7
2014-Oct-21 22:33N 41°20' W 071°27'9 8.6
2014-Oct-21 21:33N 41°28' W 071°22'8 8.0
2014-Oct-21 20:33N 41°35' W 071°18'8 7.6
2014-Oct-21 19:33N 41°43' W 071°20'6 1.0
2014-Oct-21 13:32N 41°48' W 071°24'0 0.0
2014-Oct-21 12:33N 41°48' W 071°24'2 1.6
2014-Oct-21 11:33N 41°47' W 071°22'0 0.0
2014-Oct-21 10:33N 41°47' W 071°22'0 0.0
2014-Oct-21 09:33N 41°47' W 071°22'0 0.0
2014-Oct-21 08:33N 41°47' W 071°22'0 0.0
2014-Oct-21 07:33N 41°47' W 071°22'0 0.0
2014-Oct-21 06:33N 41°47' W 071°22'0 0.0
2014-Oct-21 05:33N 41°47' W 071°22'0 0.0
2014-Oct-21 04:33N 41°47' W 071°22'0 0.0
2014-Oct-21 03:33N 41°47' W 071°22'0 0.0
2014-Oct-21 02:33N 41°47' W 071°22'0 0.0
2014-Oct-21 01:33N 41°47' W 071°22'0 0.0
2014-Oct-21 00:33N 41°47' W 071°22'0 0.0
2014-Oct-20 23:33N 41°47' W 071°22'0 0.0
2014-Oct-20 22:32N 41°47' W 071°22'0 0.0
2014-Oct-20 21:31N 41°47' W 071°22'0 0.0
2014-Oct-20 20:33N 41°47' W 071°22'0 0.0
2014-Oct-20 19:29N 41°47' W 071°22'0 0.0
2014-Oct-20 18:33N 41°47' W 071°22'0 0.0
2014-Oct-20 17:33N 41°47' W 071°22'0 0.0
2014-Oct-20 16:33N 41°47' W 071°22'0 0.0
2014-Oct-20 15:33N 41°47' W 071°22'0 0.0
2014-Oct-20 14:31N 41°47' W 071°22'1 1.1
2014-Oct-20 13:33N 41°46' W 071°23'5 4.7
2014-Oct-20 12:33N 41°42' W 071°19'4 4.2
2014-Oct-20 11:33N 41°38' W 071°18'5 5.3
2014-Oct-20 10:33N 41°33' W 071°20'7 7.3
2014-Oct-20 09:33N 41°26' W 071°23'8 8.0
2014-Oct-20 08:33N 41°19' W 071°28'7 7.4
2014-Oct-20 07:33N 41°17' W 071°37'8 8.1
2014-Oct-20 06:33N 41°16' W 071°48'9 9.0
2014-Oct-20 05:33N 41°14' W 071°60'10 9.7
2014-Oct-20 04:33N 41°13' W 072°13'10 9.9
2014-Oct-20 03:33N 41°09' W 072°25'9 8.9
2014-Oct-20 02:33N 41°07' W 072°36'8 8.2
2014-Oct-20 01:33N 41°05' W 072°47'23 7.5
2014-Oct-19 22:30N 41°01' W 073°17'7 7.4
2014-Oct-19 21:33N 40°60' W 073°26'24 7.5
2014-Oct-19 18:21N 40°48' W 073°53'5 6.3
2014-Oct-19 17:33N 40°45' W 073°58'6 5.8
2014-Oct-19 16:33N 40°40' W 074°03'6 6.1
2014-Oct-19 15:33N 40°39' W 074°10'3 2.6
2014-Oct-19 14:17N 40°36' W 074°12'3 4.6
2014-Oct-19 13:33N 40°39' W 074°10'0 0.2
2014-Oct-19 12:33N 40°39' W 074°10'0 0.0
2014-Oct-19 11:33N 40°39' W 074°10'0 0.0
2014-Oct-19 10:33N 40°39' W 074°10'3 0.9
2014-Oct-19 07:09N 40°36' W 074°12'3 1.1
2014-Oct-19 04:25N 40°34' W 074°14'0 0.0
2014-Oct-19 03:13N 40°34' W 074°14'0 0.0
2014-Oct-19 02:31N 40°34' W 074°14'0 0.0
2014-Oct-19 01:33N 40°34' W 074°14'3 0.1
2014-Oct-17 23:31N 40°31' W 074°15'5 5.1
2014-Oct-17 22:32N 40°30' W 074°09'0 0.0
2014-Oct-17 21:31N 40°30' W 074°09'0 0.0
2014-Oct-17 15:25N 40°30' W 074°09'0 0.0
2014-Oct-17 14:28N 40°30' W 074°09'0 0.0
2014-Oct-17 11:27N 40°30' W 074°09'0 0.0
2014-Oct-17 09:23N 40°30' W 074°09'0 0.0
2014-Oct-17 02:31N 40°30' W 074°09'0 0.0
2014-Oct-17 00:33N 40°30' W 074°09'0 0.0
2014-Oct-16 23:13N 40°30' W 074°09'4 5.3
2014-Oct-16 22:32N 40°29' W 074°04'8 8.5
2014-Oct-16 21:33N 40°37' W 074°03'8 8.0
2014-Oct-16 20:33N 40°44' W 073°58'7 6.1
2014-Oct-16 19:30N 40°48' W 073°51'6 6.7
2014-Oct-16 18:33N 40°52' W 073°45'9 8.6
2014-Oct-16 17:33N 40°56' W 073°35'10 9.5
2014-Oct-16 16:33N 41°01' W 073°24'10 9.5
2014-Oct-16 15:33N 41°02' W 073°11'9 9.2
2014-Oct-16 14:33N 41°03' W 072°59'9 9.1
2014-Oct-16 13:33N 41°05' W 072°47'9 8.9
2014-Oct-16 12:33N 41°07' W 072°36'9 8.6
2014-Oct-16 11:34N 41°10' W 072°25'9 9.1
2014-Oct-16 10:33N 41°13' W 072°13'1010.0
2014-Oct-16 09:33N 41°14' W 072°00'1010.4
2014-Oct-16 08:33N 41°16' W 071°47'1010.1
2014-Oct-16 07:33N 41°18' W 071°33'8 8.1
2014-Oct-16 06:33N 41°23' W 071°25'9 8.7
2014-Oct-16 05:33N 41°31' W 071°21'8 7.9
2014-Oct-16 04:33N 41°39' W 071°19'7 7.3
2014-Oct-16 03:33N 41°46' W 071°23'1 1.2
2014-Oct-16 02:33N 41°47' W 071°22'0 0.0
2014-Oct-16 01:33N 41°47' W 071°22'0 0.0
2014-Oct-16 00:33N 41°47' W 071°22'0 0.0
2014-Oct-15 23:33N 41°47' W 071°22'0 0.0
2014-Oct-15 22:33N 41°47' W 071°22'0 0.0
2014-Oct-15 21:33N 41°47' W 071°22'0 0.0
2014-Oct-15 20:33N 41°47' W 071°22'0 0.0
2014-Oct-15 19:33N 41°47' W 071°22'0 0.0
2014-Oct-15 18:33N 41°47' W 071°22'0 0.0
2014-Oct-15 17:33N 41°47' W 071°22'0 0.0
2014-Oct-15 16:33N 41°47' W 071°22'0 0.0
2014-Oct-15 15:33N 41°47' W 071°22'0 0.0
2014-Oct-15 14:33N 41°47' W 071°22'0 0.0
2014-Oct-15 13:33N 41°47' W 071°22'0 0.0
2014-Oct-15 12:33N 41°47' W 071°22'0 0.0
2014-Oct-15 11:33N 41°47' W 071°22'0 0.0
2014-Oct-15 10:33N 41°47' W 071°22'0 0.0
2014-Oct-15 09:33N 41°47' W 071°22'0 0.0
2014-Oct-15 08:33N 41°47' W 071°22'0 0.1
2014-Oct-15 07:33N 41°47' W 071°22'5 4.9
2014-Oct-15 06:33N 41°42' W 071°20'8 7.4
2014-Oct-15 05:28N 41°34' W 071°19'7 8.0
2014-Oct-15 04:33N 41°28' W 071°22'8 8.1
2014-Oct-15 03:33N 41°20' W 071°27'7 6.9
2014-Oct-15 02:33N 41°18' W 071°35'8 8.3
2014-Oct-15 01:33N 41°16' W 071°46'9 9.2
2014-Oct-15 00:33N 41°14' W 071°58'10 9.9
2014-Oct-14 23:33N 41°13' W 072°11'10 9.8
2014-Oct-14 22:33N 41°10' W 072°24'9 8.9
2014-Oct-14 21:33N 41°07' W 072°35'8 8.2
2014-Oct-14 20:33N 41°05' W 072°45'8 7.7
2014-Oct-14 19:32N 41°04' W 072°56'7 7.6
2014-Oct-14 18:33N 41°02' W 073°05'8 7.5
2014-Oct-14 17:33N 41°01' W 073°15'11 7.5
2014-Oct-14 16:07N 40°59' W 073°29'13 7.9
2014-Oct-14 14:28N 40°52' W 073°44'7 7.2
2014-Oct-14 13:32N 40°48' W 073°51'6 5.8
2014-Oct-14 12:33N 40°45' W 073°57'5 4.7
2014-Oct-14 11:32N 40°41' W 074°01'4 4.1
2014-Oct-14 10:33N 40°39' W 074°05'0 0.0
2014-Oct-14 09:33N 40°39' W 074°05'0 0.0
2014-Oct-14 08:33N 40°39' W 074°05'0 0.0
2014-Oct-14 07:31N 40°39' W 074°05'0 0.0
2014-Oct-14 06:29N 40°39' W 074°05'0 0.0
2014-Oct-14 05:25N 40°39' W 074°05'  

Dump ship's entire track history